Latest Coastal Weather Observations for Point Cook

IDV60701

Issued at 4:02 am EST Tuesday 28 June 2022 (issued every 10 minutes, with the page automatically refreshed every 10 minutes)

About coastal observations | Map of coastal stations | Coastal observations for VIC | Marine services | Other Formats
Station Details ID: 087185 Name: POINT COOK RAAF Lat: -37.93 Lon: 144.76 Height: 3.13 m
Data from the previous 72 hours. | See also: Recent months for locations in Victoria
Date/Time
EST
Wind Sea
Height
m
Swell Vis
km
Cloud Weather Temp
°C
Press
MSL
hPa
Rain since
9am
mm
Dir  Spd
kts
Gust
kts
Height
m
Period
s
Dir
28/04:00am N 5 5 - - - - 10 - - 4.4 1031.2 0.0
28/03:30am N 5 5 - - - - 10 - - 4.6 1031.3 0.0
28/03:00am NNW 5 5 - - - - 10 - - 4.1 1031.9 0.0
28/02:30am N 2 3 - - - - 10 - - 5.6 1031.9 0.0
28/02:00am NW 4 5 - - - - 10 - - 4.5 1032.0 0.0
28/01:30am NW 4 5 - - - - 10 - - 5.3 1031.9 0.0
28/01:00am NW 6 7 - - - - 10 Partly cloudy - 6.8 1032.0 0.0
28/12:30am WNW 5 6 - - - - 10 Cloudy - 8.1 1032.2 0.0
28/12:00am NW 5 6 - - - - 10 Cloudy - 8.3 1032.1 0.0
 
Date/Time
EST
Wind Sea
Height
m
Swell Vis
km
Cloud Weather Temp
°C
Press
MSL
hPa
Rain since
9am
mm
Dir  Spd
kts
Gust
kts
Height
m
Period
s
Dir
27/11:30pm NW 6 7 - - - - 10 Cloudy - 8.4 1032.3 0.0
27/11:00pm NW 6 8 - - - - 10 Cloudy - 8.6 1032.5 0.0
27/10:30pm NW 5 6 - - - - 10 Cloudy - 8.4 1032.6 0.0
27/10:00pm NW 5 6 - - - - 10 Cloudy - 8.1 1032.6 0.0
27/09:30pm NW 5 5 - - - - 10 Cloudy - 8.1 1032.8 0.0
27/09:00pm WNW 5 6 - - - - 10 Cloudy - 8.3 1033.0 0.0
27/08:30pm WNW 5 5 - - - - 10 Partly cloudy - 8.1 1032.9 0.0
27/08:00pm WNW 4 5 - - - - 10 Cloudy - 6.9 1032.8 0.0
27/07:30pm W 2 2 - - - - 10 Partly cloudy - 7.0 1032.7 0.0
27/07:00pm W 3 3 - - - - 10 - - 7.1 1032.7 0.0
27/06:30pm W 3 3 - - - - 10 - - 8.9 1032.5 0.0
27/06:00pm W 2 3 - - - - 10 Cloudy - 9.3 1032.4 0.0
27/05:30pm WSW 3 3 - - - - 10 Partly cloudy - 9.1 1032.6 0.0
27/05:00pm WSW 3 4 - - - - 10 Partly cloudy - 10.2 1032.5 0.0
27/04:30pm WSW 4 6 - - - - 10 Partly cloudy - 11.7 1032.3 0.0
27/04:00pm WSW 6 7 - - - - 10 Cloudy - 12.1 1032.5 0.0
27/03:30pm SW 9 11 - - - - 10 Partly cloudy - 12.5 1032.3 0.0
27/03:00pm SW 8 9 - - - - 10 Partly cloudy - 12.9 1032.2 0.0
27/02:30pm SW 8 10 - - - - 10 Partly cloudy - 13.2 1032.1 0.0
27/02:00pm SW 10 12 - - - - 10 Partly cloudy - 12.9 1032.0 0.0
27/01:30pm WSW 7 11 - - - - 10 Cloudy - 12.0 1032.3 0.0
27/01:00pm WSW 9 11 - - - - 10 Cloudy - 12.0 1032.6 0.0
27/12:30pm SW 11 15 - - - - 10 Partly cloudy - 12.0 1033.0 0.0
27/12:00pm WSW 8 11 - - - - 10 Cloudy - 11.9 1032.9 0.0
27/11:30am WNW 6 9 - - - - 10 Partly cloudy - 10.6 1033.1 0.0
27/11:00am W 6 8 - - - - 10 Partly cloudy - 10.1 1033.4 0.0
27/10:30am WSW 6 9 - - - - 10 Partly cloudy - 9.8 1033.5 0.0
27/10:00am W 5 8 - - - - 10 Partly cloudy - 9.6 1032.8 0.0
27/09:30am WNW 5 6 - - - - 10 Partly cloudy - 7.5 1032.5 0.0
27/09:00am W 6 8 - - - - 10 Partly cloudy - 6.7 1032.2 2.2
27/08:30am WNW 6 7 - - - - 10 Partly cloudy - 6.4 1032.0 2.2
27/08:00am W 7 9 - - - - 10 - - 5.7 1031.8 2.2
27/07:30am WNW 8 10 - - - - 10 - - 5.1 1031.6 2.2
27/07:00am WNW 6 7 - - - - 10 Partly cloudy - 4.7 1031.5 2.2
27/06:30am WNW 7 9 - - - - 10 Partly cloudy - 5.6 1031.3 2.2
27/06:00am WSW 5 7 - - - - 10 Mostly cloudy Rain 6.2 1031.2 2.2
27/05:30am W 9 12 - - - - 10 Partly cloudy - 6.1 1030.6 2.2
27/05:00am WNW 7 10 - - - - 10 Partly cloudy - 5.7 1030.3 2.2
27/04:30am W 9 12 - - - - 10 Partly cloudy - 6.2 1030.1 2.2
27/04:00am WNW 7 10 - - - - 10 Partly cloudy - 5.8 1029.9 2.2
27/03:30am W 8 13 - - - - 10 Partly cloudy - 6.0 1030.0 2.2
27/03:00am WNW 7 9 - - - - 10 - - 5.0 1030.1 2.2
27/02:30am WNW 6 7 - - - - 10 - - 4.8 1029.8 2.2
27/02:00am WNW 7 8 - - - - 10 Partly cloudy - 5.9 1029.6 2.2
27/01:30am W 6 10 - - - - 10 Partly cloudy - 6.0 1029.3 2.2
27/01:00am WNW 5 7 - - - - 10 Partly cloudy - 5.3 1029.5 2.0
27/12:30am WNW 7 8 - - - - 10 Partly cloudy - 6.0 1029.3 2.0
27/12:00am WNW 7 9 - - - - 10 - - 5.4 1029.4 2.0
 
Date/Time
EST
Wind Sea
Height
m
Swell Vis
km
Cloud Weather Temp
°C
Press
MSL
hPa
Rain since
9am
mm
Dir  Spd
kts
Gust
kts
Height
m
Period
s
Dir
26/11:30pm WNW 7 9 - - - - 10 - - 5.8 1029.3 2.0
26/11:00pm WNW 8 10 - - - - 10 - - 6.4 1029.0 2.0
26/10:30pm WNW 6 9 - - - - 10 - - 6.5 1028.8 2.0
26/10:00pm W 8 10 - - - - 10 Partly cloudy - 7.0 1028.4 2.0
26/09:30pm W 8 11 - - - - 10 Partly cloudy - 7.4 1028.2 2.0
26/09:00pm WNW 6 9 - - - - 10 - - 6.8 1027.9 2.0
26/08:30pm WNW 5 7 - - - - 10 Partly cloudy - 6.9 1027.4 2.0
26/08:00pm WNW 7 9 - - - - 10 Partly cloudy - 7.8 1027.1 2.0
26/07:30pm WNW 5 7 - - - - 10 Partly cloudy - 8.3 1026.8 2.0
26/07:00pm W 5 6 - - - - 10 Partly cloudy - 8.2 1026.4 2.0
26/06:30pm W 5 6 - - - - 10 Partly cloudy - 8.8 1026.2 2.0
26/06:00pm W 5 9 - - - - 10 Cloudy Showers 9.4 1025.9 2.0
26/05:30pm WSW 4 5 - - - - 10 Partly cloudy - 9.1 1025.5 2.0
26/05:00pm SW 10 15 - - - - 10 Partly cloudy - 9.6 1025.2 2.0
26/04:30pm WSW 5 11 - - - - 10 Partly cloudy - 10.9 1024.8 2.0
26/04:00pm SW 9 16 - - - - 10 Partly cloudy - 10.8 1024.2 2.0
26/03:30pm WSW 1 2 - - - - 10 Cloudy - 11.6 1023.7 2.0
26/03:00pm W 4 6 - - - - 10 Cloudy Rain 11.5 1023.5 2.0
26/02:30pm SW 6 8 - - - - 10 Partly cloudy - 11.2 1023.4 2.0
26/02:00pm SW 5 7 - - - - 10 Partly cloudy - 11.2 1023.5 1.6
26/01:30pm W 7 11 - - - - 10 Partly cloudy - 11.6 1023.6 1.6
26/01:00pm W 7 11 - - - - 10 Cloudy - 12.2 1023.4 1.6
26/12:30pm W 7 10 - - - - 10 Partly cloudy - 12.4 1023.5 1.6
26/12:00pm WNW 9 13 - - - - 10 Cloudy - 11.9 1023.7 1.6
26/11:30am NW 8 12 - - - - 10 Partly cloudy - 11.4 1023.7 1.6
26/11:00am NW 7 8 - - - - 10 Partly cloudy - 10.8 1023.7 1.6
26/10:30am WNW 6 8 - - - - 10 Partly cloudy - 10.3 1023.7 1.6
26/10:25am WNW 7 8 - - - - 6 Partly cloudy - 10.4 1023.7 1.6
26/10:01am W 8 13 - - - - 2 Partly cloudy - 10.4 1023.6 1.2
26/10:00am W 8 13 - - - - 2 Partly cloudy - 10.3 1023.6 1.2
26/09:50am WSW 11 16 - - - - 2 Partly cloudy - 10.4 1023.6 0.8
26/09:42am WSW 9 13 - - - - 5 Partly cloudy - 11.4 1023.4 0.0
26/09:30am WNW 8 13 - - - - 10 Partly cloudy - 12.4 1023.2 0.0
26/09:00am WNW 5 7 - - - - 10 Mostly cloudy - 11.6 1023.0 0.0
26/08:30am NW 8 13 - - - - 10 Cloudy - 11.1 1022.8 0.0
26/08:00am NNW 7 9 - - - - 10 Partly cloudy - 10.7 1022.3 0.0
26/07:30am NNW 6 8 - - - - 10 Partly cloudy - 10.3 1021.9 0.0
26/07:00am NNW 8 9 - - - - 10 Partly cloudy - 10.5 1021.8 0.0
26/06:30am N 7 9 - - - - 10 Partly cloudy - 9.9 1021.5 0.0
26/06:00am N 5 7 - - - - 10 Mostly cloudy - 9.3 1021.1 0.0
26/05:30am N 5 7 - - - - 10 Partly cloudy - 10.1 1020.8 0.0
26/05:00am N 6 7 - - - - 10 Partly cloudy - 10.4 1020.5 0.0
26/04:30am NNW 5 6 - - - - 10 Partly cloudy - 10.2 1020.2 0.0
26/04:19am NW 7 9 - - - - 10 Partly cloudy - 10.6 1020.2 0.0
26/04:06am NW 10 16 - - - - 5 Partly cloudy - 11.0 1020.4 0.0
26/04:00am NNW 10 16 - - - - 10 Partly cloudy - 11.5 1020.3 0.0
26/03:30am N 4 5 - - - - 10 Cloudy - 11.3 1020.3 0.0
26/03:00am N 6 8 - - - - 10 Cloudy - 11.8 1020.1 0.0
26/02:30am N 6 8 - - - - 10 Partly cloudy - 11.7 1020.3 0.0
26/02:00am N 7 10 - - - - 10 Partly cloudy - 11.8 1020.3 0.0
26/01:30am N 7 10 - - - - 10 Partly cloudy - 11.9 1020.3 0.0
26/01:00am N 7 9 - - - - 10 Partly cloudy - 11.6 1020.5 0.0
26/12:30am N 9 11 - - - - 10 Cloudy - 11.9 1020.4 0.0
26/12:00am N 7 9 - - - - 10 Cloudy - 11.5 1020.3 0.0
 
Date/Time
EST
Wind Sea
Height
m
Swell Vis
km
Cloud Weather Temp
°C
Press
MSL
hPa
Rain since
9am
mm
Dir  Spd
kts
Gust
kts
Height
m
Period
s
Dir
25/11:30pm N 8 10 - - - - 10 Partly cloudy - 12.4 1020.5 0.0
25/11:00pm N 9 11 - - - - 10 Cloudy - 12.4 1020.3 0.0
25/10:30pm N 7 9 - - - - 10 Partly cloudy - 11.0 1020.0 0.0
25/10:00pm N 8 11 - - - - 10 Partly cloudy - 11.0 1020.0 0.0
25/09:30pm N 8 11 - - - - 10 Cloudy - 10.9 1019.8 0.0
25/09:00pm N 8 9 - - - - 10 Mostly clear - 10.6 1019.8 0.0
25/08:30pm N 9 12 - - - - 10 Partly cloudy - 11.4 1019.7 0.0
25/08:00pm N 9 11 - - - - 10 - - 10.9 1019.5 0.0
25/07:30pm N 9 11 - - - - 10 - - 11.1 1019.5 0.0
25/07:00pm N 9 11 - - - - 10 Partly cloudy - 11.4 1019.2 0.0
25/06:30pm N 11 14 - - - - 10 - - 12.3 1018.8 0.0
25/06:00pm N 12 17 - - - - 10 - - 12.8 1018.4 0.0
25/05:30pm N 11 15 - - - - 10 Partly cloudy - 13.4 1018.3 0.0
25/05:00pm NNW 9 12 - - - - 10 Partly cloudy - 14.1 1018.5 0.0
25/04:30pm NNW 15 22 - - - - 10 Partly cloudy - 14.9 1018.2 0.0
25/04:00pm NNW 13 21 - - - - 10 Partly cloudy - 15.7 1018.3 0.0
25/03:30pm NW 13 18 - - - - 10 Partly cloudy - 15.7 1018.2 0.0
25/03:00pm NW 16 25 - - - - 10 Mostly clear - 15.6 1018.2 0.0
25/02:31pm NW 15 25 - - - - 10 - - 15.8 1018.2 0.0
25/02:30pm NW 16 25 - - - - 10 - - 15.8 1018.2 0.0
25/02:00pm NW 16 22 - - - - 10 Partly cloudy - 15.8 1018.1 0.0
25/01:39pm NW 15 26 - - - - 10 Partly cloudy - 15.8 1018.3 0.0
25/01:30pm NW 16 23 - - - - 10 Partly cloudy - 15.9 1018.4 0.0
25/01:00pm NW 17 24 - - - - 10 - - 15.4 1018.5 0.0
25/12:30pm NW 15 19 - - - - 10 - - 15.3 1018.7 0.0
25/12:00pm NW 16 23 - - - - 10 - - 15.3 1018.8 0.0
25/11:30am NW 15 21 - - - - 10 Partly cloudy - 14.8 1019.2 0.0
25/11:00am NNW 15 20 - - - - 10 - - 14.4 1019.3 0.0
25/10:30am NNW 16 19 - - - - 10 - - 13.9 1019.4 0.0
25/10:00am NNW 13 19 - - - - 10 - - 13.4 1019.4 0.0
25/09:30am NNW 10 14 - - - - 10 - - 12.6 1019.1 0.0
25/09:00am NNW 11 15 - - - - 10 - - 11.8 1018.9 0.0
25/08:30am NNW 9 13 - - - - 10 - - 10.4 1018.5 0.0
25/08:00am N 7 9 - - - - 10 - - 9.2 1018.3 0.0
25/07:30am N 8 10 - - - - 10 - - 8.3 1018.1 0.0
25/07:00am NW 7 9 - - - - 10 Partly cloudy - 8.0 1018.0 0.0
25/06:30am NNW 9 11 - - - - 10 Partly cloudy - 8.7 1017.7 0.0
25/06:00am NNW 10 13 - - - - 10 - - 8.7 1017.3 0.0
25/05:30am N 10 12 - - - - 10 - - 8.4 1017.1 0.0
25/05:00am N 9 11 - - - - 10 - - 7.8 1016.9 0.0
25/04:30am N 7 9 - - - - 10 - - 7.8 1016.8 0.0

Other formats

Comma delimited format used in spreadsheet applications
http://www.bom.gov.au/fwo/IDV60701/IDV60701.95941.axf

JavaScript Object Notation format (JSON) in row-major order
http://www.bom.gov.au/fwo/IDV60701/IDV60701.95941.json

Data quality

Most of these data are generated automatically and are frequently updated. Quality checks on data are not normally performed. It is possible for incorrect values to appear. Refer to information at About Latest Weather Observations and please check the disclaimer before using these data.